createdAt,value
2023-02-19T00:00:05.612Z,487.00
2023-02-19T00:00:35.607Z,490.00
2023-02-19T00:01:05.610Z,487.00
2023-02-19T00:01:35.621Z,488.00
2023-02-19T00:02:05.626Z,485.00
2023-02-19T00:02:35.666Z,483.00
2023-02-19T00:03:05.692Z,481.00
2023-02-19T00:03:35.775Z,483.00
2023-02-19T00:04:05.748Z,485.00
2023-02-19T00:04:35.830Z,481.00
2023-02-19T00:05:05.842Z,481.00
2023-02-19T00:05:35.837Z,482.00
2023-02-19T00:06:05.915Z,486.00
2023-02-19T00:06:35.992Z,485.00
2023-02-19T00:07:45.180Z,502.00
2023-02-19T00:08:15.202Z,498.00
2023-02-19T00:08:45.279Z,496.00
2023-02-19T00:09:15.326Z,499.00
2023-02-19T00:09:45.387Z,500.00
2023-02-19T00:10:15.411Z,499.00
2023-02-19T00:10:45.459Z,497.00
2023-02-19T00:11:15.486Z,497.00
2023-02-19T00:11:45.529Z,494.00
2023-02-19T00:12:15.567Z,495.00
2023-02-19T00:12:45.600Z,493.00
2023-02-19T00:13:15.647Z,495.00
2023-02-19T00:13:45.690Z,492.00
2023-02-19T00:14:15.794Z,494.00
2023-02-19T00:14:45.807Z,496.00
2023-02-19T00:15:15.849Z,497.00
2023-02-19T00:15:45.910Z,497.00
2023-02-19T00:16:15.960Z,496.00
2023-02-19T00:16:46.041Z,494.00
2023-02-19T00:17:16.084Z,496.00
2023-02-19T00:17:46.173Z,496.00
2023-02-19T00:18:16.251Z,496.00
2023-02-19T00:18:46.333Z,497.00
2023-02-19T00:19:16.440Z,496.00
2023-02-19T00:19:46.507Z,493.00
2023-02-19T00:20:16.597Z,491.00
2023-02-19T00:20:46.685Z,492.00
2023-02-19T00:21:16.787Z,492.00
2023-02-19T00:21:46.847Z,491.00
2023-02-19T00:22:16.934Z,490.00
2023-02-19T00:22:47.024Z,490.00
2023-02-19T00:23:17.105Z,490.00
2023-02-19T00:23:47.189Z,493.00
2023-02-19T00:24:17.280Z,491.00
2023-02-19T00:24:49.245Z,494.00
2023-02-19T00:25:17.388Z,490.00
2023-02-19T00:25:47.469Z,491.00
2023-02-19T00:26:18.890Z,492.00
2023-02-19T00:26:47.662Z,495.00
2023-02-19T00:27:17.742Z,491.00
2023-02-19T00:27:47.824Z,492.00
2023-02-19T00:28:17.910Z,494.00
2023-02-19T00:28:48.013Z,493.00
2023-02-19T00:29:18.088Z,494.00
2023-02-19T00:29:48.168Z,496.00
2023-02-19T00:30:18.266Z,498.00
2023-02-19T00:30:48.400Z,499.00
2023-02-19T00:31:18.623Z,501.00
2023-02-19T00:31:48.595Z,500.00
2023-02-19T00:32:18.610Z,498.00
2023-02-19T00:32:48.561Z,499.00
2023-02-19T00:33:18.645Z,500.00
2023-02-19T00:33:48.727Z,498.00
2023-02-19T00:34:18.837Z,498.00
2023-02-19T00:34:48.910Z,495.00
2023-02-19T00:35:18.991Z,497.00
2023-02-19T00:35:49.077Z,497.00
2023-02-19T00:36:19.164Z,498.00
2023-02-19T00:36:49.245Z,496.00
2023-02-19T00:37:19.319Z,495.00
2023-02-19T00:37:49.406Z,495.00
2023-02-19T00:38:19.493Z,499.00
2023-02-19T00:38:49.584Z,497.00
2023-02-19T00:39:19.684Z,492.00
2023-02-19T00:39:49.796Z,494.00
2023-02-19T00:40:19.858Z,493.00
2023-02-19T00:40:49.943Z,494.00
2023-02-19T00:41:20.043Z,496.00
2023-02-19T00:41:50.114Z,493.00
2023-02-19T00:42:20.204Z,492.00
2023-02-19T00:42:50.301Z,494.00
2023-02-19T00:43:20.418Z,494.00
2023-02-19T00:43:50.493Z,495.00
2023-02-19T00:44:20.594Z,493.00
2023-02-19T00:44:50.669Z,492.00
2023-02-19T00:45:20.758Z,492.00
2023-02-19T00:45:50.844Z,494.00
2023-02-19T00:46:20.950Z,494.00
2023-02-19T00:46:50.920Z,492.00
2023-02-19T00:47:21.002Z,494.00
2023-02-19T00:47:51.084Z,494.00
2023-02-19T00:48:21.173Z,493.00
2023-02-19T00:48:51.254Z,491.00
2023-02-19T00:49:21.356Z,490.00
2023-02-19T00:49:51.448Z,487.00
2023-02-19T00:50:21.531Z,488.00
2023-02-19T00:50:51.607Z,485.00
2023-02-19T00:51:21.688Z,491.00
2023-02-19T00:51:51.783Z,492.00
2023-02-19T00:52:21.867Z,492.00
2023-02-19T00:52:51.933Z,490.00
2023-02-19T00:53:22.011Z,490.00
2023-02-19T00:53:52.105Z,492.00
2023-02-19T00:54:22.186Z,494.00
2023-02-19T00:54:52.272Z,495.00
2023-02-19T00:55:22.372Z,493.00
2023-02-19T00:55:52.427Z,494.00
2023-02-19T00:56:22.512Z,493.00
2023-02-19T00:56:52.604Z,494.00
2023-02-19T00:57:22.683Z,498.00
2023-02-19T00:57:52.767Z,497.00
2023-02-19T00:58:22.855Z,497.00
2023-02-19T00:58:52.945Z,495.00
2023-02-19T00:59:23.032Z,493.00
2023-02-19T00:59:53.106Z,491.00
2023-02-19T01:00:23.189Z,491.00
2023-02-19T01:00:53.277Z,493.00
2023-02-19T01:01:23.448Z,494.00
2023-02-19T01:01:53.559Z,495.00
2023-02-19T01:02:23.412Z,492.00
2023-02-19T01:02:53.532Z,492.00
2023-02-19T01:03:23.508Z,490.00
2023-02-19T01:03:53.592Z,487.00
2023-02-19T01:04:23.711Z,489.00
2023-02-19T01:04:53.741Z,489.00
2023-02-19T01:05:23.693Z,487.00
2023-02-19T01:05:53.787Z,491.00
2023-02-19T01:06:23.869Z,488.00
2023-02-19T01:06:53.968Z,491.00
2023-02-19T01:07:24.034Z,490.00
2023-02-19T01:07:54.076Z,489.00
2023-02-19T01:08:24.175Z,497.00
2023-02-19T01:08:54.190Z,494.00
2023-02-19T01:09:24.275Z,491.00
2023-02-19T01:09:54.339Z,490.00
2023-02-19T01:10:24.381Z,490.00
2023-02-19T01:10:54.440Z,491.00
2023-02-19T01:11:24.456Z,491.00
2023-02-19T01:11:54.499Z,490.00
2023-02-19T01:12:24.548Z,490.00
2023-02-19T01:12:54.579Z,491.00
2023-02-19T01:13:24.635Z,491.00
2023-02-19T01:13:54.678Z,490.00
2023-02-19T01:14:24.714Z,489.00
2023-02-19T01:14:54.754Z,489.00
2023-02-19T01:15:24.816Z,491.00
2023-02-19T01:15:54.905Z,492.00
2023-02-19T01:16:25.044Z,490.00
2023-02-19T01:16:54.961Z,489.00
2023-02-19T01:17:25.014Z,488.00
2023-02-19T01:17:55.107Z,491.00
2023-02-19T01:18:25.192Z,491.00
2023-02-19T01:18:55.269Z,490.00
2023-02-19T01:19:25.356Z,491.00
2023-02-19T01:19:55.440Z,491.00
2023-02-19T01:20:25.541Z,488.00
2023-02-19T01:20:55.602Z,484.00
2023-02-19T01:21:25.718Z,486.00
2023-02-19T01:21:55.778Z,488.00
2023-02-19T01:22:25.863Z,483.00
2023-02-19T01:22:55.945Z,483.00
2023-02-19T01:23:26.041Z,483.00
2023-02-19T01:23:56.121Z,485.00
2023-02-19T01:24:26.208Z,485.00
2023-02-19T01:24:56.292Z,487.00
2023-02-19T01:25:26.372Z,485.00
2023-02-19T01:25:56.446Z,487.00
2023-02-19T01:26:26.560Z,488.00
2023-02-19T01:26:56.613Z,491.00
2023-02-19T01:27:26.691Z,492.00
2023-02-19T01:27:56.809Z,491.00
2023-02-19T01:28:26.784Z,490.00
2023-02-19T01:28:56.873Z,487.00
2023-02-19T01:29:26.951Z,488.00
2023-02-19T01:29:57.033Z,488.00
2023-02-19T01:30:27.192Z,485.00
2023-02-19T01:30:57.173Z,484.00
2023-02-19T01:31:27.453Z,485.00
2023-02-19T01:31:57.469Z,483.00
2023-02-19T01:32:27.442Z,485.00
2023-02-19T01:32:57.533Z,482.00
2023-02-19T01:33:27.623Z,483.00
2023-02-19T01:33:57.728Z,483.00
2023-02-19T01:34:27.782Z,481.00
2023-02-19T01:34:57.867Z,482.00
2023-02-19T01:35:27.953Z,482.00
2023-02-19T01:35:58.029Z,485.00
2023-02-19T01:36:28.153Z,484.00
2023-02-19T01:36:58.104Z,483.00
2023-02-19T01:37:28.186Z,482.00
2023-02-19T01:37:58.266Z,479.00
2023-02-19T01:38:28.349Z,481.00
2023-02-19T01:38:58.424Z,481.00
2023-02-19T01:39:28.511Z,483.00
2023-02-19T01:39:58.603Z,482.00
2023-02-19T01:40:28.689Z,482.00
2023-02-19T01:40:58.781Z,483.00
2023-02-19T01:41:28.854Z,480.00
2023-02-19T01:41:58.979Z,480.00
2023-02-19T01:42:29.049Z,484.00
2023-02-19T01:42:59.152Z,486.00
2023-02-19T01:43:29.424Z,486.00
2023-02-19T01:43:59.278Z,486.00
2023-02-19T01:44:29.363Z,487.00
2023-02-19T01:44:59.444Z,485.00
2023-02-19T01:45:29.531Z,485.00
2023-02-19T01:45:59.621Z,488.00
2023-02-19T01:46:29.777Z,488.00
2023-02-19T01:46:59.727Z,489.00
2023-02-19T01:47:29.816Z,488.00
2023-02-19T01:47:59.897Z,489.00
2023-02-19T01:48:29.981Z,486.00
2023-02-19T01:49:00.119Z,488.00
2023-02-19T01:49:30.183Z,488.00
2023-02-19T01:50:00.267Z,489.00
2023-02-19T01:50:30.360Z,489.00
2023-02-19T01:51:00.444Z,487.00
2023-02-19T01:51:30.524Z,487.00
2023-02-19T01:52:00.609Z,488.00
2023-02-19T01:52:30.690Z,487.00
2023-02-19T01:53:00.772Z,488.00
2023-02-19T01:53:30.856Z,490.00
2023-02-19T01:54:00.939Z,488.00
2023-02-19T01:54:31.032Z,490.00
2023-02-19T01:55:01.118Z,491.00
2023-02-19T01:55:31.204Z,488.00
2023-02-19T01:56:01.285Z,488.00
2023-02-19T01:56:31.390Z,491.00
2023-02-19T01:57:01.467Z,492.00
2023-02-19T01:57:31.586Z,494.00
2023-02-19T01:58:01.644Z,494.00
2023-02-19T01:58:31.723Z,491.00
2023-02-19T01:59:01.845Z,491.00
2023-02-19T01:59:31.925Z,491.00
2023-02-19T02:00:02.004Z,488.00
2023-02-19T02:00:32.101Z,488.00
2023-02-19T02:01:02.206Z,489.00
2023-02-19T02:01:32.206Z,489.00
2023-02-19T02:02:02.323Z,489.00
2023-02-19T02:02:32.380Z,490.00
2023-02-19T02:03:02.464Z,493.00
2023-02-19T02:03:32.561Z,491.00
2023-02-19T02:04:02.659Z,491.00
2023-02-19T02:04:32.745Z,489.00
2023-02-19T02:05:02.817Z,491.00
2023-02-19T02:05:32.902Z,488.00
2023-02-19T02:06:03.013Z,487.00
2023-02-19T02:06:33.063Z,488.00
2023-02-19T02:07:03.143Z,487.00
2023-02-19T02:07:33.196Z,476.00
2023-02-19T02:08:03.248Z,481.00
2023-02-19T02:08:33.323Z,481.00
2023-02-19T02:09:03.357Z,480.00
2023-02-19T02:09:33.398Z,478.00
2023-02-19T02:10:03.447Z,481.00
2023-02-19T02:10:33.485Z,482.00
2023-02-19T02:11:03.525Z,482.00
2023-02-19T02:11:33.559Z,483.00
2023-02-19T02:12:03.597Z,484.00
2023-02-19T02:12:33.633Z,486.00
2023-02-19T02:13:03.699Z,483.00
2023-02-19T02:13:33.748Z,486.00
2023-02-19T02:14:03.794Z,487.00
2023-02-19T02:14:33.836Z,485.00
2023-02-19T02:15:03.867Z,486.00
2023-02-19T02:15:33.915Z,485.00
2023-02-19T02:16:04.057Z,486.00
2023-02-19T02:16:34.088Z,486.00
2023-02-19T02:17:04.062Z,486.00
2023-02-19T02:17:34.135Z,488.00
2023-02-19T02:18:04.220Z,487.00
2023-02-19T02:18:34.304Z,485.00
2023-02-19T02:19:04.382Z,484.00
2023-02-19T02:19:34.467Z,487.00
2023-02-19T02:20:04.562Z,488.00
2023-02-19T02:20:34.655Z,489.00
2023-02-19T02:21:04.736Z,489.00
2023-02-19T02:21:34.816Z,488.00
2023-02-19T02:22:04.900Z,487.00
2023-02-19T02:22:34.988Z,489.00
2023-02-19T02:23:05.063Z,486.00
2023-02-19T02:23:35.152Z,488.00
2023-02-19T02:24:05.229Z,494.00
2023-02-19T02:24:35.338Z,494.00
2023-02-19T02:25:05.403Z,494.00
2023-02-19T02:25:35.479Z,491.00
2023-02-19T02:26:05.597Z,492.00
2023-02-19T02:26:35.659Z,485.00
2023-02-19T02:27:05.734Z,487.00
2023-02-19T02:27:35.809Z,486.00
2023-02-19T02:28:05.912Z,491.00
2023-02-19T02:28:35.989Z,487.00
2023-02-19T02:29:06.078Z,491.00
2023-02-19T02:29:36.166Z,489.00
2023-02-19T02:30:06.282Z,489.00
2023-02-19T02:30:36.247Z,487.00
2023-02-19T02:31:06.482Z,486.00
2023-02-19T02:31:36.411Z,486.00
2023-02-19T02:32:06.488Z,486.00
2023-02-19T02:32:36.460Z,484.00
2023-02-19T02:33:06.543Z,483.00
2023-02-19T02:33:36.620Z,484.00
2023-02-19T02:34:06.701Z,486.00
2023-02-19T02:34:36.789Z,484.00
2023-02-19T02:35:06.881Z,482.00
2023-02-19T02:35:36.958Z,482.00
2023-02-19T02:36:07.049Z,484.00
2023-02-19T02:36:37.140Z,484.00
2023-02-19T02:37:07.208Z,484.00
2023-02-19T02:37:37.287Z,485.00
2023-02-19T02:38:07.370Z,486.00
2023-02-19T02:38:37.449Z,487.00
2023-02-19T02:39:07.536Z,486.00
2023-02-19T02:39:37.619Z,487.00
2023-02-19T02:40:07.700Z,487.00
2023-02-19T02:40:37.786Z,486.00
2023-02-19T02:41:07.969Z,486.00
2023-02-19T02:41:37.963Z,484.00
2023-02-19T02:42:08.056Z,484.00
2023-02-19T02:42:38.136Z,487.00
2023-02-19T02:43:08.222Z,490.00
2023-02-19T02:43:38.320Z,489.00
2023-02-19T02:44:08.400Z,487.00
2023-02-19T02:44:38.477Z,489.00
2023-02-19T02:45:08.556Z,487.00
2023-02-19T02:45:38.709Z,484.00
2023-02-19T02:46:08.701Z,481.00
2023-02-19T02:46:38.781Z,480.00
2023-02-19T02:47:08.858Z,478.00
2023-02-19T02:47:38.948Z,480.00
2023-02-19T02:48:09.033Z,479.00
2023-02-19T02:48:39.110Z,481.00
2023-02-19T02:49:09.193Z,481.00
2023-02-19T02:49:39.288Z,482.00
2023-02-19T02:50:09.362Z,484.00
2023-02-19T02:50:39.447Z,481.00
2023-02-19T02:51:09.900Z,482.00
2023-02-19T02:51:39.554Z,482.00
2023-02-19T02:52:09.636Z,483.00
2023-02-19T02:52:39.724Z,484.00
2023-02-19T02:53:09.808Z,483.00
2023-02-19T02:53:39.903Z,485.00
2023-02-19T02:54:09.996Z,484.00
2023-02-19T02:54:40.074Z,486.00
2023-02-19T02:55:10.162Z,486.00
2023-02-19T02:55:40.249Z,484.00
2023-02-19T02:56:10.336Z,484.00
2023-02-19T02:56:40.417Z,483.00
2023-02-19T02:57:10.517Z,482.00
2023-02-19T02:57:40.596Z,484.00
2023-02-19T02:58:10.669Z,482.00
2023-02-19T02:58:40.764Z,484.00
2023-02-19T02:59:10.858Z,484.00
2023-02-19T02:59:40.945Z,482.00
2023-02-19T03:00:11.020Z,484.00
2023-02-19T03:00:41.107Z,484.00
2023-02-19T03:01:11.521Z,485.00
2023-02-19T03:01:41.215Z,485.00
2023-02-19T03:02:11.398Z,485.00
2023-02-19T03:02:41.296Z,486.00
2023-02-19T03:03:11.377Z,486.00
2023-02-19T03:03:41.467Z,486.00
2023-02-19T03:04:11.547Z,483.00
2023-02-19T03:04:41.634Z,479.00
2023-02-19T03:05:11.725Z,478.00
2023-02-19T03:05:41.826Z,478.00
2023-02-19T03:06:11.903Z,479.00
2023-02-19T03:06:41.981Z,477.00
2023-02-19T03:07:12.055Z,478.00
2023-02-19T03:07:42.090Z,478.00
2023-02-19T03:08:12.140Z,481.00
2023-02-19T03:08:42.184Z,481.00
2023-02-19T03:09:12.211Z,482.00
2023-02-19T03:09:42.250Z,483.00
2023-02-19T03:10:12.301Z,481.00
2023-02-19T03:10:42.332Z,479.00
2023-02-19T03:11:12.373Z,481.00
2023-02-19T03:11:42.421Z,481.00
2023-02-19T03:12:12.468Z,482.00
2023-02-19T03:12:42.499Z,480.00
2023-02-19T03:13:12.548Z,483.00
2023-02-19T03:13:42.597Z,480.00
2023-02-19T03:14:12.628Z,481.00
2023-02-19T03:14:42.669Z,483.00
2023-02-19T03:15:12.718Z,484.00
2023-02-19T03:15:42.767Z,482.00
2023-02-19T03:16:12.912Z,482.00
2023-02-19T03:16:43.105Z,482.00
2023-02-19T03:17:12.918Z,481.00
2023-02-19T03:17:43.001Z,481.00
2023-02-19T03:18:13.088Z,479.00
2023-02-19T03:18:43.164Z,478.00
2023-02-19T03:19:13.259Z,478.00
2023-02-19T03:19:43.343Z,477.00
2023-02-19T03:20:13.411Z,478.00
2023-02-19T03:20:43.507Z,480.00
2023-02-19T03:21:13.587Z,477.00
2023-02-19T03:21:43.761Z,478.00
2023-02-19T03:22:13.700Z,479.00
2023-02-19T03:22:43.788Z,479.00
2023-02-19T03:23:13.865Z,479.00
2023-02-19T03:23:43.961Z,477.00
2023-02-19T03:24:14.063Z,478.00
2023-02-19T03:24:44.142Z,480.00
2023-02-19T03:25:14.217Z,481.00
2023-02-19T03:25:44.304Z,481.00
2023-02-19T03:26:14.388Z,481.00
2023-02-19T03:26:44.468Z,483.00
2023-02-19T03:27:14.544Z,483.00
2023-02-19T03:27:44.632Z,481.00
2023-02-19T03:28:14.712Z,481.00
2023-02-19T03:28:44.801Z,482.00
2023-02-19T03:29:14.881Z,482.00
2023-02-19T03:29:44.960Z,483.00
2023-02-19T03:30:15.060Z,480.00
2023-02-19T03:30:45.135Z,482.00
2023-02-19T03:31:15.372Z,480.00
2023-02-19T03:31:45.341Z,479.00
2023-02-19T03:32:15.362Z,479.00
2023-02-19T03:32:45.321Z,480.00
2023-02-19T03:33:15.414Z,478.00
2023-02-19T03:33:45.486Z,479.00
2023-02-19T03:34:15.566Z,477.00
2023-02-19T03:34:45.662Z,480.00
2023-02-19T03:35:15.747Z,477.00
2023-02-19T03:35:45.828Z,477.00
2023-02-19T03:36:15.907Z,478.00
2023-02-19T03:36:45.999Z,478.00
2023-02-19T03:37:16.087Z,481.00
2023-02-19T03:37:46.164Z,482.00
2023-02-19T03:38:16.247Z,482.00
2023-02-19T03:38:46.327Z,482.00
2023-02-19T03:39:16.410Z,482.00
2023-02-19T03:39:46.504Z,480.00
2023-02-19T03:40:16.595Z,481.00
2023-02-19T03:40:46.672Z,480.00
2023-02-19T03:41:16.743Z,481.00
2023-02-19T03:41:46.832Z,482.00
2023-02-19T03:42:16.919Z,480.00
2023-02-19T03:42:47.017Z,481.00
2023-02-19T03:43:17.100Z,483.00
2023-02-19T03:43:47.187Z,484.00
2023-02-19T03:44:17.266Z,483.00
2023-02-19T03:44:47.353Z,482.00
2023-02-19T03:45:17.445Z,482.00
2023-02-19T03:45:47.557Z,481.00
2023-02-19T03:46:17.523Z,484.00
2023-02-19T03:46:47.601Z,482.00
2023-02-19T03:47:17.683Z,481.00
2023-02-19T03:47:47.768Z,483.00
2023-02-19T03:48:17.861Z,482.00
2023-02-19T03:48:47.988Z,481.00
2023-02-19T03:49:18.044Z,480.00
2023-02-19T03:49:49.182Z,480.00
2023-02-19T03:50:18.222Z,477.00
2023-02-19T03:50:48.312Z,477.00
2023-02-19T03:51:18.387Z,478.00
2023-02-19T03:51:48.477Z,479.00
2023-02-19T03:52:18.566Z,479.00
2023-02-19T03:52:48.645Z,478.00
2023-02-19T03:53:18.728Z,477.00
2023-02-19T03:53:48.815Z,480.00
2023-02-19T03:54:18.900Z,479.00
2023-02-19T03:54:48.993Z,479.00
2023-02-19T03:55:19.073Z,479.00
2023-02-19T03:55:49.152Z,480.00
2023-02-19T03:56:19.233Z,480.00
2023-02-19T03:56:49.321Z,482.00
2023-02-19T03:57:19.402Z,481.00
2023-02-19T03:57:49.484Z,484.00
2023-02-19T03:58:19.571Z,484.00
2023-02-19T03:58:49.906Z,481.00
2023-02-19T03:59:19.754Z,478.00
2023-02-19T03:59:49.828Z,479.00
2023-02-19T04:00:19.908Z,482.00
2023-02-19T04:00:49.994Z,485.00
2023-02-19T04:01:20.083Z,485.00
2023-02-19T04:01:50.150Z,485.00
2023-02-19T04:02:20.258Z,486.00
2023-02-19T04:02:50.356Z,485.00
2023-02-19T04:03:20.429Z,482.00
2023-02-19T04:03:50.516Z,482.00
2023-02-19T04:04:20.656Z,485.00
2023-02-19T04:04:50.650Z,484.00
2023-02-19T04:05:20.626Z,484.00
2023-02-19T04:05:50.718Z,484.00
2023-02-19T04:06:20.797Z,483.00
2023-02-19T04:06:50.880Z,485.00
2023-02-19T04:07:20.951Z,486.00
2023-02-19T04:07:50.984Z,485.00
2023-02-19T04:08:21.035Z,484.00
2023-02-19T04:08:51.069Z,484.00
2023-02-19T04:09:21.113Z,485.00
2023-02-19T04:09:51.147Z,485.00
2023-02-19T04:10:21.192Z,485.00
2023-02-19T04:10:51.261Z,486.00
2023-02-19T04:11:21.301Z,486.00
2023-02-19T04:11:51.320Z,485.00
2023-02-19T04:12:21.368Z,483.00
2023-02-19T04:12:51.416Z,486.00
2023-02-19T04:13:21.459Z,486.00
2023-02-19T04:13:51.507Z,486.00
2023-02-19T04:14:21.535Z,486.00
2023-02-19T04:14:51.629Z,486.00
2023-02-19T04:15:21.648Z,486.00
2023-02-19T04:15:51.682Z,484.00
2023-02-19T04:16:21.751Z,482.00
2023-02-19T04:16:51.815Z,479.00
2023-02-19T04:17:21.860Z,481.00
2023-02-19T04:17:51.949Z,481.00
2023-02-19T04:18:22.036Z,481.00
2023-02-19T04:18:52.120Z,481.00
2023-02-19T04:19:22.197Z,481.00
2023-02-19T04:19:52.284Z,481.00
2023-02-19T04:20:22.366Z,480.00
2023-02-19T04:20:52.472Z,481.00
2023-02-19T04:21:22.539Z,482.00
2023-02-19T04:21:52.624Z,480.00
2023-02-19T04:22:22.717Z,480.00
2023-02-19T04:22:52.813Z,480.00
2023-02-19T04:23:22.884Z,481.00
2023-02-19T04:23:52.979Z,481.00
2023-02-19T04:24:23.061Z,482.00
2023-02-19T04:24:53.147Z,482.00
2023-02-19T04:25:23.229Z,482.00
2023-02-19T04:25:53.305Z,482.00
2023-02-19T04:26:23.393Z,479.00
2023-02-19T04:26:53.478Z,481.00
2023-02-19T04:27:23.564Z,480.00
2023-02-19T04:27:53.638Z,480.00
2023-02-19T04:28:23.719Z,482.00
2023-02-19T04:28:53.811Z,481.00
2023-02-19T04:29:23.894Z,478.00
2023-02-19T04:29:53.985Z,479.00
2023-02-19T04:30:24.107Z,479.00
2023-02-19T04:30:54.103Z,480.00
2023-02-19T04:31:24.294Z,480.00
2023-02-19T04:31:54.349Z,481.00
2023-02-19T04:32:24.318Z,482.00
2023-02-19T04:32:54.412Z,487.00
2023-02-19T04:33:24.500Z,490.00
2023-02-19T04:33:54.596Z,491.00
2023-02-19T04:34:24.669Z,489.00
2023-02-19T04:34:54.758Z,491.00
2023-02-19T04:35:24.844Z,490.00
2023-02-19T04:35:54.927Z,489.00
2023-02-19T04:36:25.012Z,491.00
2023-02-19T04:36:55.090Z,490.00
2023-02-19T04:37:25.175Z,491.00
2023-02-19T04:37:55.253Z,489.00
2023-02-19T04:38:25.339Z,487.00
2023-02-19T04:38:55.423Z,486.00
2023-02-19T04:39:25.504Z,487.00
2023-02-19T04:39:55.586Z,488.00
2023-02-19T04:40:25.667Z,488.00
2023-02-19T04:40:55.756Z,488.00
2023-02-19T04:41:25.829Z,487.00
2023-02-19T04:41:55.915Z,486.00
2023-02-19T04:42:25.998Z,483.00
2023-02-19T04:42:56.077Z,482.00
2023-02-19T04:43:26.192Z,482.00
2023-02-19T04:43:56.269Z,481.00
2023-02-19T04:44:26.345Z,479.00
2023-02-19T04:44:56.429Z,480.00
2023-02-19T04:45:26.506Z,481.00
2023-02-19T04:45:56.630Z,481.00
2023-02-19T04:46:26.710Z,481.00
2023-02-19T04:46:56.709Z,480.00
2023-02-19T04:47:26.797Z,480.00
2023-02-19T04:47:56.889Z,482.00
2023-02-19T04:48:26.998Z,483.00
2023-02-19T04:48:57.068Z,485.00
2023-02-19T04:49:27.154Z,486.00
2023-02-19T04:49:57.240Z,486.00
2023-02-19T04:50:27.317Z,487.00
2023-02-19T04:50:57.388Z,489.00
2023-02-19T04:51:27.484Z,489.00
2023-02-19T04:51:57.583Z,486.00
2023-02-19T04:52:27.656Z,488.00
2023-02-19T04:52:57.730Z,486.00
2023-02-19T04:53:27.828Z,489.00
2023-02-19T04:53:57.907Z,487.00
2023-02-19T04:54:28.003Z,487.00
2023-02-19T04:54:58.088Z,487.00
2023-02-19T04:55:28.208Z,485.00
2023-02-19T04:55:58.274Z,484.00
2023-02-19T04:56:28.364Z,482.00
2023-02-19T04:56:58.443Z,482.00
2023-02-19T04:57:28.530Z,481.00
2023-02-19T04:57:58.612Z,482.00
2023-02-19T04:58:28.730Z,480.00
2023-02-19T04:58:58.698Z,482.00
2023-02-19T04:59:28.791Z,481.00
2023-02-19T04:59:58.882Z,481.00
2023-02-19T05:00:28.968Z,482.00
2023-02-19T05:00:59.059Z,478.00
2023-02-19T05:01:29.204Z,483.00
2023-02-19T05:01:59.171Z,484.00
2023-02-19T05:02:29.255Z,483.00
2023-02-19T05:02:59.347Z,482.00
2023-02-19T05:03:29.456Z,481.00
2023-02-19T05:03:59.538Z,481.00
2023-02-19T05:04:29.646Z,481.00
2023-02-19T05:04:59.627Z,480.00
2023-02-19T05:05:29.717Z,482.00
2023-02-19T05:05:59.797Z,482.00
2023-02-19T05:06:29.894Z,482.00
2023-02-19T05:06:59.977Z,481.00
2023-02-19T05:07:30.022Z,483.00
2023-02-19T05:08:00.091Z,483.00
2023-02-19T05:08:30.140Z,483.00
2023-02-19T05:09:00.179Z,483.00
2023-02-19T05:09:30.228Z,484.00
2023-02-19T05:10:00.281Z,483.00
2023-02-19T05:10:30.309Z,484.00
2023-02-19T05:11:00.354Z,485.00
2023-02-19T05:11:30.395Z,485.00
2023-02-19T05:12:00.436Z,485.00
2023-02-19T05:12:30.479Z,483.00
2023-02-19T05:13:00.511Z,482.00
2023-02-19T05:13:30.618Z,482.00
2023-02-19T05:14:00.578Z,484.00
2023-02-19T05:14:30.614Z,484.00
2023-02-19T05:15:00.678Z,487.00
2023-02-19T05:15:30.740Z,484.00
2023-02-19T05:16:00.867Z,482.00
2023-02-19T05:16:30.774Z,483.00
2023-02-19T05:17:00.817Z,481.00
2023-02-19T05:17:30.894Z,480.00
2023-02-19T05:18:00.976Z,479.00
2023-02-19T05:18:31.104Z,483.00
2023-02-19T05:19:01.090Z,485.00
2023-02-19T05:19:31.182Z,483.00
2023-02-19T05:20:01.250Z,482.00
2023-02-19T05:20:31.333Z,478.00
2023-02-19T05:21:01.433Z,479.00
2023-02-19T05:21:31.518Z,479.00
2023-02-19T05:22:01.603Z,479.00
2023-02-19T05:22:31.679Z,477.00
2023-02-19T05:23:01.781Z,478.00
2023-02-19T05:23:31.866Z,480.00
2023-02-19T05:24:01.947Z,478.00
2023-02-19T05:24:32.038Z,477.00
2023-02-19T05:25:02.123Z,480.00
2023-02-19T05:25:32.217Z,480.00
2023-02-19T05:26:02.304Z,480.00
2023-02-19T05:26:32.381Z,482.00
2023-02-19T05:27:02.463Z,485.00
2023-02-19T05:27:32.545Z,484.00
2023-02-19T05:28:02.633Z,484.00
2023-02-19T05:28:32.759Z,482.00
2023-02-19T05:29:02.730Z,480.00
2023-02-19T05:29:32.817Z,484.00
2023-02-19T05:30:02.980Z,483.00
2023-02-19T05:30:33.009Z,481.00
2023-02-19T05:31:03.035Z,479.00
2023-02-19T05:31:33.090Z,478.00
2023-02-19T05:32:03.118Z,478.00
2023-02-19T05:32:33.191Z,481.00
2023-02-19T05:33:03.292Z,483.00
2023-02-19T05:33:33.375Z,482.00
2023-02-19T05:34:03.457Z,473.00
2023-02-19T05:34:33.549Z,484.00
2023-02-19T05:35:03.626Z,484.00
2023-02-19T05:35:33.707Z,486.00
2023-02-19T05:36:03.788Z,485.00
2023-02-19T05:36:33.873Z,485.00
2023-02-19T05:37:03.952Z,482.00
2023-02-19T05:37:34.027Z,483.00
2023-02-19T05:38:04.104Z,485.00
2023-02-19T05:38:34.235Z,485.00
2023-02-19T05:39:04.201Z,486.00
2023-02-19T05:39:34.279Z,488.00
2023-02-19T05:40:04.354Z,485.00
2023-02-19T05:40:34.436Z,486.00
2023-02-19T05:41:04.519Z,485.00
2023-02-19T05:41:34.610Z,487.00
2023-02-19T05:42:04.687Z,489.00
2023-02-19T05:42:34.826Z,489.00
2023-02-19T05:43:04.779Z,489.00
2023-02-19T05:43:34.909Z,490.00
2023-02-19T05:44:04.881Z,489.00
2023-02-19T05:44:34.955Z,489.00
2023-02-19T05:45:05.037Z,489.00
2023-02-19T05:45:35.135Z,492.00
2023-02-19T05:46:05.235Z,492.00
2023-02-19T05:46:35.344Z,490.00
2023-02-19T05:47:05.303Z,488.00
2023-02-19T05:47:35.384Z,486.00
2023-02-19T05:48:05.477Z,482.00
2023-02-19T05:48:35.576Z,481.00
2023-02-19T05:49:05.653Z,481.00
2023-02-19T05:49:35.741Z,480.00
2023-02-19T05:50:05.829Z,479.00
2023-02-19T05:50:37.285Z,480.00
2023-02-19T05:51:05.957Z,481.00
2023-02-19T05:51:36.028Z,482.00
2023-02-19T05:52:06.111Z,483.00
2023-02-19T05:52:36.193Z,484.00
2023-02-19T05:53:06.282Z,482.00
2023-02-19T05:53:36.385Z,484.00
2023-02-19T05:54:06.482Z,481.00
2023-02-19T05:54:36.547Z,478.00
2023-02-19T05:55:06.635Z,479.00
2023-02-19T05:55:36.745Z,481.00
2023-02-19T05:56:06.825Z,483.00
2023-02-19T05:56:36.926Z,482.00
2023-02-19T05:57:07.000Z,484.00
2023-02-19T05:57:37.081Z,485.00
2023-02-19T05:58:07.180Z,483.00
2023-02-19T05:58:37.262Z,482.00
2023-02-19T05:59:07.347Z,483.00
2023-02-19T05:59:37.427Z,484.00
2023-02-19T06:00:07.514Z,483.00
2023-02-19T06:00:37.621Z,485.00
2023-02-19T06:01:07.811Z,486.00
2023-02-19T06:01:37.795Z,485.00
2023-02-19T06:02:07.873Z,485.00
2023-02-19T06:02:37.952Z,484.00
2023-02-19T06:03:08.020Z,483.00
2023-02-19T06:03:38.178Z,483.00
2023-02-19T06:04:08.180Z,482.00
2023-02-19T06:04:38.261Z,483.00
2023-02-19T06:05:08.343Z,482.00
2023-02-19T06:05:38.422Z,481.00
2023-02-19T06:06:08.512Z,482.00
2023-02-19T06:06:38.595Z,481.00
2023-02-19T06:07:08.677Z,482.00
2023-02-19T06:07:38.714Z,483.00
2023-02-19T06:08:08.755Z,484.00
2023-02-19T06:09:18.056Z,475.00
2023-02-19T06:09:47.968Z,482.00
2023-02-19T06:10:18.029Z,481.00
2023-02-19T06:10:48.040Z,490.00
2023-02-19T06:11:18.084Z,486.00
2023-02-19T06:11:48.148Z,490.00
2023-02-19T06:12:18.163Z,488.00
2023-02-19T06:12:48.204Z,486.00
2023-02-19T06:13:18.241Z,487.00
2023-02-19T06:13:48.279Z,488.00
2023-02-19T06:14:18.328Z,491.00
2023-02-19T06:14:48.356Z,491.00
2023-02-19T06:15:18.399Z,491.00
2023-02-19T06:15:48.446Z,492.00
2023-02-19T06:16:18.617Z,492.00